Time;durP1;ratioP1;P1;durP2;ratioP2;P2;SDS_P1;SDS_P2;PMS_P1;PMS_P2;Temp;Humidity;BMP_temperature;BMP_pressure;BME280_temperature;BME280_humidity;BME280_pressure;Samples;Min_cycle;Max_cycle;Signal;HPM_P1;HPM_P2
2021/07/18 00:00:54;;;;;;;;;7.33;6.67;;;;;21.61;57.99;102045.34;4997907;28;45433;-94
2021/07/18 00:03:19;;;;;;;;;6.00;5.00;;;;;21.57;57.86;102038.53;4997257;28;47184;-95
2021/07/18 00:05:48;;;;;;;;;4.00;4.00;;;;;21.53;57.47;102039.69;5014009;28;45223;-95
2021/07/18 00:08:13;;;;;;;;;7.00;5.67;;;;;21.53;57.92;102039.69;5004491;28;45418;-95
2021/07/18 00:10:38;;;;;;;;;7.67;6.33;;;;;21.51;58.13;102030.97;4997888;28;44863;-95
2021/07/18 00:13:04;;;;;;;;;8.00;6.33;;;;;21.47;58.05;102026.81;4997385;28;47014;-94
2021/07/18 00:15:30;;;;;;;;;8.67;6.00;;;;;21.46;58.07;102038.34;4996285;28;45396;-95
2021/07/18 00:17:56;;;;;;;;;9.33;7.00;;;;;21.44;57.88;102040.25;4997323;28;45397;-94
2021/07/18 00:20:22;;;;;;;;;11.00;7.00;;;;;21.37;57.86;102039.75;4997361;28;45502;-95
2021/07/18 00:22:47;;;;;;;;;5.00;5.00;;;;;21.33;58.52;102032.94;4997288;28;48298;-94
2021/07/18 00:25:13;;;;;;;;;6.67;5.67;;;;;21.33;58.18;102036.47;4997140;28;45893;-95
2021/07/18 00:27:39;;;;;;;;;6.00;6.00;;;;;21.29;58.50;102029.66;4996952;28;45464;-95
2021/07/18 00:30:06;;;;;;;;;7.00;7.00;;;;;21.27;58.90;102030.69;5013658;28;45330;-94
2021/07/18 00:32:32;;;;;;;;;8.00;6.33;;;;;21.23;58.50;102040.63;4997276;28;46984;-95
2021/07/18 00:34:57;;;;;;;;;7.00;5.67;;;;;21.19;58.65;102026.72;5013570;28;45380;-94
2021/07/18 00:37:23;;;;;;;;;7.67;5.00;;;;;21.16;58.69;102036.66;4993680;28;45272;-95
2021/07/18 00:39:48;;;;;;;;;5.33;5.33;;;;;21.16;58.88;102034.00;4993945;28;45428;-94
2021/07/18 00:42:18;;;;;;;;;7.67;6.67;;;;;21.17;58.79;102033.91;4993443;28;47317;-94
2021/07/18 00:44:44;;;;;;;;;6.33;6.00;;;;;21.15;59.14;102030.50;4977197;28;45450;-95
2021/07/18 00:47:09;;;;;;;;;6.67;5.67;;;;;21.15;58.70;102038.44;4997052;28;45420;-94
2021/07/18 00:49:37;;;;;;;;;8.00;6.67;;;;;21.13;59.19;102035.03;5000986;28;45322;-94
2021/07/18 00:52:03;;;;;;;;;6.00;5.00;;;;;21.12;58.97;102038.63;4997734;28;47965;-96
2021/07/18 00:54:29;;;;;;;;;6.33;6.00;;;;;21.06;58.85;102033.72;4997037;28;45431;-94
2021/07/18 00:56:54;;;;;;;;;6.00;6.00;;;;;21.06;58.85;102037.19;4997039;28;45389;-94
2021/07/18 00:59:19;;;;;;;;;6.00;6.00;;;;;21.03;59.01;102026.81;4997073;28;45332;-95
2021/07/18 01:01:45;;;;;;;;;7.00;7.00;;;;;21.02;58.91;102033.03;4996618;28;46879;-95
2021/07/18 01:04:11;;;;;;;;;6.00;6.00;;;;;20.98;59.29;102033.31;4996464;28;45469;-94
2021/07/18 01:06:37;;;;;;;;;9.33;6.00;;;;;20.99;59.02;102029.72;4996657;28;44769;-95
2021/07/18 01:09:03;;;;;;;;;7.00;7.00;;;;;20.98;59.25;102035.94;4996907;28;45371;-94
2021/07/18 01:11:28;;;;;;;;;6.00;4.00;;;;;20.94;59.34;102030.88;4996279;28;47352;-94
2021/07/18 01:13:53;;;;;;;;;6.00;6.00;;;;;20.87;59.49;102037.44;4996698;28;45430;-95
2021/07/18 01:16:19;;;;;;;;;7.25;6.50;;;;;20.90;59.14;102047.00;4997077;28;45332;-95
2021/07/18 01:18:45;;;;;;;;;6.67;5.33;;;;;20.90;59.12;102037.28;4997218;28;45299;-95
2021/07/18 01:21:10;;;;;;;;;6.00;6.00;;;;;20.92;59.37;102043.31;4985277;28;47048;-94
2021/07/18 01:23:37;;;;;;;;;6.00;6.00;;;;;20.92;59.40;102040.66;4993548;28;45399;-95
2021/07/18 01:26:04;;;;;;;;;7.33;6.00;;;;;20.88;59.09;102031.19;4976987;28;45311;-96
2021/07/18 01:28:30;;;;;;;;;5.33;5.00;;;;;20.86;59.21;102034.88;4978581;28;45386;-95
2021/07/18 01:30:55;;;;;;;;;7.00;6.00;;;;;20.82;59.56;102035.03;4996309;28;45665;-95
2021/07/18 01:33:21;;;;;;;;;8.67;7.00;;;;;20.78;59.22;102032.69;4996443;28;45346;-95
2021/07/18 01:35:46;;;;;;;;;7.67;7.00;;;;;20.78;59.48;102035.31;4996246;28;45626;-94
2021/07/18 01:38:13;;;;;;;;;6.00;5.67;;;;;20.76;59.63;102038.06;4996707;28;45350;-94
2021/07/18 01:40:39;;;;;;;;;5.33;5.33;;;;;20.74;59.83;102036.44;4996488;28;48056;-95
2021/07/18 01:43:04;;;;;;;;;5.33;4.33;;;;;20.68;59.77;102041.16;4999360;28;45358;-95
2021/07/18 01:45:30;;;;;;;;;8.33;7.00;;;;;20.64;59.55;102044.91;5016368;28;45269;-95
2021/07/18 01:47:56;;;;;;;;;5.00;5.00;;;;;20.61;59.37;102036.31;5014574;28;44759;-95
2021/07/18 01:50:21;;;;;;;;;8.00;6.00;;;;;20.62;59.83;102035.34;4999622;28;47144;-95
2021/07/18 01:52:47;;;;;;;;;7.33;4.67;;;;;20.56;60.02;102029.47;4996153;28;45224;-94
2021/07/18 01:55:16;;;;;;;;;7.33;7.33;;;;;20.52;60.01;102029.75;4979997;28;45316;-94
2021/07/18 01:57:43;;;;;;;;;8.00;5.00;;;;;20.51;59.82;102028.91;4980250;28;45312;-93
2021/07/18 02:00:11;;;;;;;;;7.33;7.33;;;;;20.52;60.05;102022.69;4995782;28;48191;-96
2021/07/18 02:02:41;;;;;;;;;6.00;6.00;;;;;20.46;60.10;102022.19;4996957;28;45488;-95
2021/07/18 02:05:07;;;;;;;;;6.67;6.33;;;;;20.43;59.69;102023.22;5012476;28;45359;-95
2021/07/18 02:07:33;;;;;;;;;7.33;5.33;;;;;20.47;59.88;102030.03;4979947;28;45717;-94
2021/07/18 02:09:58;;;;;;;;;7.67;7.00;;;;;20.47;59.93;102024.75;4979409;28;47389;-95
2021/07/18 02:12:23;;;;;;;;;7.00;7.00;;;;;20.49;59.93;102035.22;4979614;28;45252;-95
2021/07/18 02:14:49;;;;;;;;;7.67;6.33;;;;;20.39;59.68;102025.19;4980073;28;45642;-95
2021/07/18 02:17:14;;;;;;;;;10.00;7.00;;;;;20.38;59.78;102027.91;4979892;28;45220;-94
2021/07/18 02:19:40;;;;;;;;;7.33;5.33;;;;;20.33;60.04;102022.91;4990105;28;47499;-95
2021/07/18 02:22:06;;;;;;;;;10.00;6.00;;;;;20.35;60.53;102022.78;4999095;28;45298;-95
2021/07/18 02:24:31;;;;;;;;;9.33;7.33;;;;;20.31;60.35;102022.13;5004799;28;45333;-94
2021/07/18 02:26:57;;;;;;;;;7.00;6.33;;;;;20.26;60.25;102018.88;5019054;28;45260;-94
2021/07/18 02:29:23;;;;;;;;;7.00;6.33;;;;;20.26;60.49;102019.75;5018919;28;48233;-94
2021/07/18 02:31:53;;;;;;;;;5.67;5.33;;;;;20.21;60.23;102011.22;4995333;28;45278;-95
2021/07/18 02:34:19;;;;;;;;;11.33;9.00;;;;;20.22;60.46;102020.84;4979247;28;45378;-95
2021/07/18 02:36:44;;;;;;;;;8.00;7.00;;;;;20.17;60.22;102014.97;4997476;28;45354;-94
2021/07/18 02:39:10;;;;;;;;;9.00;7.33;;;;;20.15;60.52;102020.34;4998250;28;47200;-94
2021/07/18 02:41:35;;;;;;;;;6.00;6.00;;;;;20.12;60.34;102015.25;4998663;28;45648;-94
2021/07/18 02:44:08;;;;;;;;;3.00;3.00;;;;;20.15;60.54;102032.72;4999177;28;45325;-95
2021/07/18 02:46:34;;;;;;;;;8.67;6.00;;;;;20.07;60.26;102016.44;4998739;28;45615;-94
2021/07/18 02:49:00;;;;;;;;;7.67;7.00;;;;;20.09;60.70;102023.31;4998306;28;47132;-95
2021/07/18 02:51:25;;;;;;;;;6.67;6.67;;;;;20.08;60.64;102015.50;4984915;28;45279;-95
2021/07/18 02:53:51;;;;;;;;;6.67;5.67;;;;;20.00;60.73;102016.78;4978721;28;45263;-94
2021/07/18 02:56:17;;;;;;;;;6.67;6.67;;;;;20.02;60.72;102016.69;4982411;28;45267;-95
2021/07/18 02:58:42;;;;;;;;;8.00;6.25;;;;;20.01;60.88;102020.28;5014747;28;47143;-94
2021/07/18 03:01:08;;;;;;;;;6.00;5.33;;;;;19.99;60.57;102022.13;4998345;28;45441;-94
2021/07/18 03:03:33;;;;;;;;;7.00;7.00;;;;;19.90;60.71;102019.06;4998602;28;45271;-94
2021/07/18 03:05:59;;;;;;;;;7.00;7.00;;;;;19.90;61.00;102023.47;5015424;28;45223;-95
2021/07/18 03:08:24;;;;;;;;;5.67;5.67;;;;;19.91;61.07;102022.56;5018178;28;46902;-95
2021/07/18 03:10:50;;;;;;;;;6.00;6.00;;;;;19.90;60.52;102015.53;5018276;28;45370;-94
2021/07/18 03:13:15;;;;;;;;;7.00;5.00;;;;;19.89;60.76;102020.00;5018268;28;45464;-95
2021/07/18 03:15:40;;;;;;;;;5.67;5.00;;;;;19.87;61.01;102013.09;5018305;28;44842;-94
2021/07/18 03:18:08;;;;;;;;;6.00;6.00;;;;;19.84;60.91;101998.25;5007145;28;47329;-95
2021/07/18 03:20:34;;;;;;;;;5.67;5.33;;;;;19.86;60.85;102016.69;4978445;28;45538;-95
2021/07/18 03:23:00;;;;;;;;;6.33;5.00;;;;;19.83;60.84;102009.78;4978438;28;45319;-95
2021/07/18 03:25:25;;;;;;;;;7.00;7.00;;;;;19.80;61.02;102017.00;4982001;28;45201;-95
2021/07/18 03:27:51;;;;;;;;;5.67;5.33;;;;;19.76;61.31;102009.25;4997894;28;46968;-95
2021/07/18 03:30:19;;;;;;;;;7.00;6.00;;;;;19.75;61.24;102004.03;4994355;28;45339;-94
2021/07/18 03:32:45;;;;;;;;;6.67;6.33;;;;;19.74;61.67;102013.78;4978379;28;45258;-95
2021/07/18 03:35:11;;;;;;;;;7.67;7.00;;;;;19.69;61.42;102004.38;4978761;28;45307;-94
2021/07/18 03:37:38;;;;;;;;;8.00;6.00;;;;;19.72;61.19;102006.88;4978144;28;48393;-94
2021/07/18 03:40:11;;;;;;;;;6.33;6.00;;;;;19.71;61.25;102010.41;4992045;28;45347;-95
2021/07/18 03:42:37;;;;;;;;;6.50;6.00;;;;;19.69;61.68;102018.44;4997939;28;45482;-95
2021/07/18 03:45:05;;;;;;;;;7.00;6.00;;;;;19.63;61.21;102006.41;4997841;28;45484;-95
2021/07/18 03:47:30;;;;;;;;;7.33;6.00;;;;;19.65;61.42;102002.84;4997768;28;48586;-95
2021/07/18 03:49:55;;;;;;;;;7.33;5.00;;;;;19.65;61.04;102014.25;4993828;28;45271;-95
2021/07/18 03:52:21;;;;;;;;;8.25;7.75;;;;;19.62;61.38;102014.41;4977556;28;45350;-96
2021/07/18 03:54:46;;;;;;;;;8.67;7.00;;;;;19.62;61.40;102017.06;4978264;28;45514;-95
2021/07/18 03:57:12;;;;;;;;;4.25;4.25;;;;;19.59;61.52;102015.44;4977814;28;47185;-95
2021/07/18 03:59:37;;;;;;;;;5.33;4.00;;;;;19.60;61.41;102025.09;4977971;28;44786;-95
2021/07/18 04:02:02;;;;;;;;;7.67;7.00;;;;;19.58;61.41;102023.47;4977790;28;45233;-94
2021/07/18 04:04:28;;;;;;;;;7.25;7.25;;;;;19.55;61.45;102015.69;4978199;28;45541;-96
2021/07/18 04:06:53;;;;;;;;;5.00;5.00;;;;;19.56;61.33;102027.94;4977774;28;47100;-94
2021/07/18 04:09:19;;;;;;;;;8.00;5.00;;;;;19.55;61.59;102027.13;4977980;28;45233;-96
2021/07/18 04:11:45;;;;;;;;;7.67;7.00;;;;;19.52;61.77;102027.28;4986972;28;45410;-94
2021/07/18 04:14:10;;;;;;;;;9.67;7.00;;;;;19.50;61.16;102021.22;5014480;28;45437;-94
2021/07/18 04:16:36;;;;;;;;;5.25;5.25;;;;;19.50;62.13;102024.72;5013767;28;47274;-95
2021/07/18 04:19:01;;;;;;;;;7.00;7.00;;;;;19.49;61.36;102017.72;5013923;28;45341;-95
2021/07/18 04:21:27;;;;;;;;;7.00;5.50;;;;;19.46;61.52;102022.31;5014920;28;45301;-95
2021/07/18 04:23:52;;;;;;;;;6.25;6.25;;;;;19.45;61.49;102025.91;4994614;28;45346;-94
2021/07/18 04:26:17;;;;;;;;;6.67;5.67;;;;;19.44;61.69;102029.47;4977322;28;46928;-95
2021/07/18 04:28:43;;;;;;;;;7.25;5.25;;;;;19.42;61.45;102034.84;4993900;28;45413;-95
2021/07/18 04:31:09;;;;;;;;;5.33;5.00;;;;;19.42;61.41;102028.69;4977689;28;45422;-95
2021/07/18 04:33:35;;;;;;;;;6.00;5.00;;;;;19.42;61.76;102040.13;5003450;28;45285;-94
2021/07/18 04:36:00;;;;;;;;;10.00;7.25;;;;;19.42;62.04;102033.97;5016676;28;47809;-95
2021/07/18 04:38:25;;;;;;;;;6.33;6.00;;;;;19.36;61.84;102028.09;5017490;28;45937;-94
2021/07/18 04:40:51;;;;;;;;;6.33;5.33;;;;;19.34;61.68;102032.59;5017165;28;45190;-93
2021/07/18 04:43:16;;;;;;;;;8.00;7.75;;;;;19.36;62.07;102043.91;5012277;28;44744;-94
2021/07/18 04:45:42;;;;;;;;;6.33;6.00;;;;;19.32;61.89;102029.19;4996894;28;46981;-95
2021/07/18 04:48:07;;;;;;;;;6.00;4.75;;;;;19.30;61.77;102032.84;4996823;28;45905;-94
2021/07/18 04:50:33;;;;;;;;;8.25;7.50;;;;;19.31;61.82;102039.84;4997079;28;45315;-94
2021/07/18 04:52:59;;;;;;;;;7.00;5.00;;;;;19.23;62.06;102033.19;4997253;28;45338;-95
2021/07/18 04:55:24;;;;;;;;;6.33;5.33;;;;;19.27;62.01;102038.28;4996570;28;48252;-94
2021/07/18 04:57:50;;;;;;;;;8.50;6.75;;;;;19.28;62.25;102048.75;4996769;28;45490;-95
2021/07/18 05:00:22;;;;;;;;;6.00;6.00;;;;;19.25;62.12;102051.53;4996762;28;45451;-95
2021/07/18 05:02:48;;;;;;;;;6.00;5.33;;;;;19.25;61.65;102048.91;4999022;28;45195;-95
2021/07/18 05:05:16;;;;;;;;;6.67;5.00;;;;;19.26;62.02;102050.63;4998309;28;46730;-95
2021/07/18 05:07:59;;;;;;;;;7.33;5.67;;;;;19.24;62.17;102052.47;4981948;28;45335;-95
2021/07/18 05:10:26;;;;;;;;;5.67;4.00;;;;;19.29;62.00;102062.78;5000403;28;45365;-95
2021/07/18 05:12:53;;;;;;;;;6.00;6.00;;;;;19.28;62.05;102061.09;5000217;28;45346;-94
2021/07/18 05:15:21;;;;;;;;;5.00;5.00;;;;;19.27;61.84;102051.47;4999839;28;47396;-95
2021/07/18 05:17:47;;;;;;;;;6.00;6.00;;;;;19.30;62.16;102052.16;4995866;28;45758;-95
2021/07/18 05:20:15;;;;;;;;;5.67;4.33;;;;;19.32;62.30;102054.72;4980545;28;45287;-95
2021/07/18 05:22:40;;;;;;;;;6.00;4.67;;;;;19.30;61.97;102057.44;4980369;28;45311;-94
2021/07/18 05:25:08;;;;;;;;;7.25;7.00;;;;;19.34;62.11;102060.75;4996652;28;47388;-95
2021/07/18 05:27:34;;;;;;;;;6.00;6.00;;;;;19.32;62.30;102058.22;4999421;28;45404;-95
2021/07/18 05:30:00;;;;;;;;;5.00;4.33;;;;;19.30;62.43;102053.97;4999818;28;45535;-94
2021/07/18 05:32:25;;;;;;;;;5.00;5.00;;;;;19.28;62.30;102053.16;5016594;28;45456;-94
2021/07/18 05:34:51;;;;;;;;;6.50;5.50;;;;;19.29;62.67;102054.88;4999731;28;48261;-94
2021/07/18 05:37:17;;;;;;;;;6.67;5.00;;;;;19.30;62.59;102057.44;5009973;28;45268;-94
2021/07/18 05:39:42;;;;;;;;;4.67;4.67;;;;;19.31;62.82;102050.38;4999806;28;45196;-96
2021/07/18 05:42:08;;;;;;;;;5.00;4.00;;;;;19.29;62.64;102057.50;5000145;28;44784;-95
2021/07/18 05:44:33;;;;;;;;;4.33;4.33;;;;;19.30;62.63;102057.44;4999772;28;48052;-95
2021/07/18 05:46:59;;;;;;;;;7.00;5.00;;;;;19.30;62.39;102057.44;4997457;28;45232;-94
2021/07/18 05:49:25;;;;;;;;;5.33;5.00;;;;;19.31;62.74;102063.59;4980276;28;45481;-95
2021/07/18 05:51:50;;;;;;;;;5.67;5.67;;;;;19.32;62.79;102055.59;4980416;28;45409;-95
2021/07/18 05:54:15;;;;;;;;;5.67;4.33;;;;;19.35;62.39;102054.56;4985978;28;47283;-95
2021/07/18 05:56:41;;;;;;;;;6.00;5.00;;;;;19.34;63.01;102058.13;4999997;28;45330;-94
2021/07/18 05:59:07;;;;;;;;;8.00;5.00;;;;;19.37;62.56;102055.34;4995961;28;45358;-95
2021/07/18 06:01:32;;;;;;;;;3.67;3.67;;;;;19.41;62.61;102056.03;4996706;28;45481;-95
2021/07/18 06:03:57;;;;;;;;;5.67;4.67;;;;;19.41;62.42;102064.81;4995865;28;46915;-95
2021/07/18 06:06:23;;;;;;;;;5.00;5.00;;;;;19.47;62.78;102060.97;4979650;28;45671;-95
2021/07/18 06:08:49;;;;;;;;;6.00;5.00;;;;;19.42;62.39;102053.31;4998902;28;45775;-95
2021/07/18 06:11:15;;;;;;;;;7.00;5.00;;;;;19.51;62.99;102059.88;4999731;28;45400;-94
2021/07/18 06:13:40;;;;;;;;;5.67;5.00;;;;;19.54;62.84;102064.16;4998338;28;47046;-95
2021/07/18 06:16:08;;;;;;;;;5.00;4.67;;;;;19.57;62.98;102059.56;4999008;28;46090;-93
2021/07/18 06:18:34;;;;;;;;;4.00;4.00;;;;;19.62;62.51;102056.66;4999273;28;45298;-94
2021/07/18 06:20:59;;;;;;;;;7.00;4.00;;;;;19.67;62.67;102065.19;4999292;28;44949;-95
2021/07/18 06:23:25;;;;;;;;;4.00;2.00;;;;;19.67;62.54;102059.91;4998872;28;47360;-94
2021/07/18 06:25:50;;;;;;;;;5.67;5.67;;;;;19.70;62.20;102058.91;4998696;28;45439;-95
2021/07/18 06:28:15;;;;;;;;;3.67;3.00;;;;;19.70;62.42;102057.13;4999358;28;45655;-95
2021/07/18 06:30:41;;;;;;;;;5.00;5.00;;;;;19.77;62.29;102058.47;4995784;28;45397;-95
2021/07/18 06:33:06;;;;;;;;;6.33;4.33;;;;;19.83;62.33;102069.66;4995693;28;47115;-95
2021/07/18 06:35:32;;;;;;;;;3.67;3.00;;;;;19.86;62.34;102072.13;4979376;28;45484;-94
2021/07/18 06:37:57;;;;;;;;;3.67;3.33;;;;;19.88;62.38;102075.53;4995961;28;45483;-95
2021/07/18 06:40:22;;;;;;;;;4.00;4.00;;;;;19.89;62.46;102072.81;4980119;28;45404;-95
2021/07/18 06:42:48;;;;;;;;;6.00;6.00;;;;;19.95;62.30;102071.63;4979241;28;47104;-95
2021/07/18 06:45:14;;;;;;;;;5.00;5.00;;;;;20.00;62.33;102072.25;4979380;28;45722;-95
2021/07/18 06:47:43;;;;;;;;;5.00;4.00;;;;;20.07;61.88;102074.56;4979172;28;44695;-94
2021/07/18 06:50:09;;;;;;;;;6.00;4.00;;;;;20.11;62.10;102076.97;4996880;28;44858;-94
2021/07/18 06:52:34;;;;;;;;;3.67;3.00;;;;;20.18;62.00;102079.25;4998460;28;48196;-94
2021/07/18 06:55:00;;;;;;;;;5.00;4.00;;;;;20.23;62.22;102069.28;4998552;28;45378;-96
2021/07/18 06:57:25;;;;;;;;;6.00;4.00;;;;;20.27;62.08;102062.91;4998622;28;45344;-96
2021/07/18 06:59:51;;;;;;;;;5.67;4.00;;;;;20.34;61.84;102076.59;4996688;28;45432;-94
2021/07/18 07:02:19;;;;;;;;;4.00;4.00;;;;;20.37;61.74;102071.97;4986734;28;47139;-94
2021/07/18 07:04:45;;;;;;;;;4.67;4.00;;;;;20.43;61.99;102069.00;4994749;28;45300;-95
2021/07/18 07:07:10;;;;;;;;;3.00;3.00;;;;;20.47;61.80;102063.53;4978852;28;45300;-95
2021/07/18 07:09:36;;;;;;;;;6.00;4.33;;;;;20.54;61.59;102071.03;4988983;28;45519;-95
2021/07/18 07:12:02;;;;;;;;;5.33;4.00;;;;;20.61;61.26;102068.91;4995463;28;48175;-94
2021/07/18 07:14:27;;;;;;;;;4.00;4.00;;;;;20.65;61.21;102067.75;4978430;28;45229;-94
2021/07/18 07:16:53;;;;;;;;;3.67;3.67;;;;;20.72;61.65;102075.34;4978685;28;45263;-94
2021/07/18 07:19:18;;;;;;;;;4.00;4.00;;;;;20.76;61.36;102077.72;4978622;28;45205;-96
2021/07/18 07:21:44;;;;;;;;;4.00;3.00;;;;;20.81;61.07;102082.75;4978463;28;48306;-94
2021/07/18 07:24:09;;;;;;;;;3.33;3.33;;;;;20.85;61.50;102078.13;4978343;28;45389;-94
2021/07/18 07:26:35;;;;;;;;;4.00;3.00;;;;;20.93;61.78;102067.97;4978232;28;45522;-95
2021/07/18 07:29:00;;;;;;;;;5.00;4.00;;;;;21.02;61.22;102066.59;4978554;28;44799;-95
2021/07/18 07:31:25;;;;;;;;;4.00;2.67;;;;;21.06;60.83;102066.28;4978368;28;47302;-94
2021/07/18 07:33:51;;;;;;;;;4.00;4.00;;;;;21.11;60.78;102063.41;4978040;28;45968;-96
2021/07/18 07:36:17;;;;;;;;;6.67;4.33;;;;;21.19;60.40;102062.91;4983480;28;45512;-95
2021/07/18 07:38:43;;;;;;;;;5.00;4.00;;;;;21.26;60.63;102061.63;5001844;28;45573;-93
2021/07/18 07:41:08;;;;;;;;;3.00;3.00;;;;;21.32;60.76;102055.06;4978044;28;47037;-95
2021/07/18 07:43:34;;;;;;;;;3.67;2.33;;;;;21.36;60.45;102054.81;4994387;28;44893;-94
2021/07/18 07:45:59;;;;;;;;;5.00;3.00;;;;;21.42;60.40;102061.53;5003234;28;45248;-95
2021/07/18 07:48:25;;;;;;;;;4.00;4.00;;;;;21.53;59.78;102062.66;4994907;28;45224;-95
2021/07/18 07:50:51;;;;;;;;;3.00;3.00;;;;;21.56;60.45;102059.84;4997368;28;47689;-95
2021/07/18 07:53:17;;;;;;;;;2.00;2.00;;;;;21.67;60.21;102059.16;5030981;28;45298;-95
2021/07/18 07:55:44;;;;;;;;;3.00;3.00;;;;;21.71;60.30;102069.47;4993942;28;45497;-94
2021/07/18 07:58:09;;;;;;;;;3.67;2.33;;;;;21.82;60.03;102065.31;4978213;28;45524;-93
2021/07/18 08:00:35;;;;;;;;;4.00;4.00;;;;;21.91;59.11;102067.38;4977891;28;48020;-96
2021/07/18 08:03:01;;;;;;;;;2.00;2.00;;;;;21.97;59.36;102074.09;4977842;28;45315;-94
2021/07/18 08:05:26;;;;;;;;;2.67;2.00;;;;;22.04;59.35;102070.13;4984290;28;45771;-95
2021/07/18 08:07:53;;;;;;;;;3.25;3.25;;;;;22.09;59.26;102068.03;4986859;28;45461;-93
2021/07/18 08:10:20;;;;;;;;;4.33;2.33;;;;;22.21;60.00;102073.47;5013737;28;48310;-94
2021/07/18 08:12:48;;;;;;;;;3.00;3.00;;;;;22.29;58.91;102077.34;5006556;28;46082;-95
2021/07/18 08:15:16;;;;;;;;;2.33;2.00;;;;;22.34;59.00;102073.50;5012439;28;45325;-95
2021/07/18 08:17:42;;;;;;;;;2.33;1.33;;;;;22.42;58.96;102064.13;5014033;28;45392;-94
2021/07/18 08:20:10;;;;;;;;;2.33;2.33;;;;;22.53;58.38;102070.53;5027330;28;47349;-96
2021/07/18 08:22:37;;;;;;;;;7.33;4.00;;;;;22.60;57.81;102061.25;4998053;28;45303;-95
2021/07/18 08:25:04;;;;;;;;;0.67;0.67;;;;;22.65;57.51;102059.13;4997506;28;45168;-96
2021/07/18 08:27:30;;;;;;;;;2.00;2.00;;;;;22.75;57.21;102058.50;4997240;28;45347;-96
2021/07/18 08:29:55;;;;;;;;;0.67;0.67;;;;;22.84;56.43;102052.56;4997212;28;47255;-96
2021/07/18 08:32:21;;;;;;;;;1.33;1.33;;;;;22.90;56.89;102053.94;4988852;28;45416;-93
2021/07/18 08:34:46;;;;;;;;;2.00;2.00;;;;;23.01;56.89;102058.53;4993672;28;45495;-95
2021/07/18 08:37:12;;;;;;;;;2.00;1.67;;;;;23.06;56.33;102043.16;4986700;28;45326;-94
2021/07/18 08:39:37;;;;;;;;;1.33;1.33;;;;;23.16;56.42;102052.19;4981799;28;48336;-94
2021/07/18 08:42:03;;;;;;;;;2.33;1.67;;;;;23.25;56.77;102045.38;4998741;28;45486;-95
2021/07/18 08:44:28;;;;;;;;;1.67;1.67;;;;;23.32;56.03;102038.72;5000161;28;45420;-93
2021/07/18 08:46:54;;;;;;;;;0.67;0.67;;;;;23.42;56.33;102041.56;5017261;28;44900;-94
2021/07/18 08:49:19;;;;;;;;;3.33;2.00;;;;;23.49;56.07;102037.53;5006599;28;46860;-93
2021/07/18 08:51:45;;;;;;;;;1.67;1.00;;;;;23.61;55.48;102040.28;4980822;28;45208;-94
2021/07/18 08:54:11;;;;;;;;;2.00;2.00;;;;;23.68;55.84;102036.22;4980630;28;45261;-94
2021/07/18 08:56:36;;;;;;;;;1.67;1.33;;;;;23.81;54.88;102037.97;5013082;28;45632;-94
2021/07/18 08:59:10;;;;;;;;;0.00;0.00;;;;;23.87;54.03;102032.22;4980319;28;47231;-94
2021/07/18 09:01:40;;;;;;;;;1.00;1.00;;;;;23.97;54.59;102033.25;4980486;28;45545;-94
2021/07/18 09:04:06;;;;;;;;;1.33;1.33;;;;;24.08;54.42;102044.94;4980063;28;45397;-93
2021/07/18 09:06:46;;;;;;;;;1.00;1.00;;;;;24.17;54.25;102038.09;4999710;28;45502;-93
2021/07/18 09:09:14;;;;;;;;;2.00;1.00;;;;;24.27;52.24;102029.34;4994379;28;48146;-94
2021/07/18 09:11:40;;;;;;;;;1.00;0.33;;;;;24.36;53.53;102033.13;5016196;28;45373;-94
2021/07/18 09:14:08;;;;;;;;;0.00;0.00;;;;;24.47;53.33;102039.41;5008445;28;45366;-95
2021/07/18 09:16:41;;;;;;;;;0.00;0.00;;;;;24.59;52.66;102035.84;4996743;28;45605;-94
2021/07/18 09:19:17;;;;;;;;;2.67;2.67;;;;;24.65;52.42;102035.38;4988487;28;47251;-95
2021/07/18 09:21:51;;;;;;;;;0.00;0.00;;;;;24.76;52.83;102028.41;4979925;28;46103;-94
2021/07/18 09:24:22;;;;;;;;;1.00;1.00;;;;;24.87;52.25;102031.13;5000202;28;45605;-94
2021/07/18 09:27:10;;;;;;;;;3.00;1.67;;;;;25.01;51.89;102030.06;4996363;28;45378;-93
2021/07/18 09:29:38;;;;;;;;;1.00;1.00;;;;;25.09;51.75;102027.63;4979795;28;47517;-95
2021/07/18 09:32:27;;;;;;;;;3.00;3.00;;;;;25.19;51.23;102018.94;5012693;28;45626;-94
2021/07/18 09:34:58;;;;;;;;;1.33;1.33;;;;;25.30;50.82;102018.06;5031434;28;45208;-93
2021/07/18 09:37:24;;;;;;;;;0.00;0.00;;;;;25.41;51.01;102017.22;5001914;28;45580;-93
2021/07/18 09:39:53;;;;;;;;;0.00;0.00;;;;;25.51;50.74;102017.34;4992341;28;47422;-94
2021/07/18 09:42:26;;;;;;;;;0.00;0.00;;;;;25.60;50.90;102017.47;4998396;28;45368;-94
2021/07/18 09:44:52;;;;;;;;;0.67;0.67;;;;;25.71;50.46;102015.75;4990451;28;45242;-94
2021/07/18 09:47:17;;;;;;;;;0.33;0.33;;;;;25.85;50.29;102022.63;5002066;28;45543;-94
2021/07/18 09:49:42;;;;;;;;;0.00;0.00;;;;;25.93;49.94;102017.53;4991353;28;47266;-94
2021/07/18 09:52:15;;;;;;;;;0.00;0.00;;;;;26.03;49.94;102020.28;4982210;28;45342;-94
2021/07/18 09:54:40;;;;;;;;;2.00;0.67;;;;;26.12;49.02;102016.00;4998723;28;45611;-94
2021/07/18 09:57:08;;;;;;;;;4.00;1.33;;;;;26.24;49.04;102015.00;4995315;28;45417;-94
2021/07/18 09:59:34;;;;;;;;;2.00;2.00;;;;;26.37;48.47;102019.31;4990324;28;47381;-94
2021/07/18 10:02:03;;;;;;;;;2.67;0.67;;;;;26.47;48.09;102004.22;4981439;28;45498;-95
2021/07/18 10:04:29;;;;;;;;;1.00;0.67;;;;;26.58;48.46;102011.34;4998276;28;45531;-94
2021/07/18 10:07:06;;;;;;;;;2.00;1.00;;;;;26.70;47.44;102013.94;4995914;28;45495;-96
2021/07/18 10:09:32;;;;;;;;;1.00;1.00;;;;;26.80;47.33;102009.50;4981874;28;47208;-95
2021/07/18 10:12:01;;;;;;;;;2.00;1.00;;;;;26.91;46.20;102014.78;4979315;28;45323;-96
2021/07/18 10:14:30;;;;;;;;;1.00;1.00;;;;;27.04;45.81;102009.22;4995856;28;45393;-96
2021/07/18 10:16:56;;;;;;;;;2.67;1.33;;;;;27.15;45.37;102012.78;4996478;28;45248;-96
2021/07/18 10:19:23;;;;;;;;;0.33;0.33;;;;;27.28;44.84;102015.22;4979360;28;45585;-94
2021/07/18 10:21:49;;;;;;;;;1.00;1.00;;;;;27.37;45.14;102008.22;4978987;28;45327;-95
2021/07/18 10:24:17;;;;;;;;;0.00;0.00;;;;;27.46;44.83;102000.22;4979275;28;45457;-93
2021/07/18 10:26:43;;;;;;;;;2.67;1.67;;;;;27.62;45.07;102009.59;4979128;28;45369;-95
2021/07/18 10:29:09;;;;;;;;;0.33;0.33;;;;;27.76;45.22;102007.53;4998894;28;47022;-94
2021/07/18 10:31:46;;;;;;;;;2.00;1.00;;;;;27.90;45.21;102009.78;4984124;28;45628;-95
2021/07/18 10:34:13;;;;;;;;;2.00;2.00;;;;;28.06;45.12;102005.72;4978958;28;45243;-94
2021/07/18 10:36:38;;;;;;;;;3.00;1.67;;;;;28.19;44.67;102014.28;4995488;28;45298;-95
2021/07/18 10:39:33;;;;;;;;;0.00;0.00;;;;;28.33;42.95;102009.53;4978636;28;48183;-96
2021/07/18 10:42:00;;;;;;;;;2.00;2.00;;;;;28.44;43.70;102000.50;4994143;28;45437;-94
2021/07/18 10:44:38;;;;;;;;;1.00;1.00;;;;;28.61;43.77;101991.72;4998380;28;45411;-95
2021/07/18 10:47:03;;;;;;;;;2.00;0.00;;;;;28.71;43.98;101993.53;5015002;28;45406;-92
2021/07/18 10:49:52;;;;;;;;;1.67;1.67;;;;;28.87;42.49;102001.00;4994859;28;47106;-93
2021/07/18 10:52:19;;;;;;;;;0.00;0.00;;;;;28.93;42.11;101990.53;4983668;28;45636;-93
2021/07/18 10:54:45;;;;;;;;;2.00;2.00;;;;;29.02;41.85;101988.81;4997045;28;45521;-93
2021/07/18 10:57:25;;;;;;;;;1.33;1.33;;;;;29.15;42.67;101991.16;5009619;28;45497;-94
2021/07/18 10:59:51;;;;;;;;;2.00;2.00;;;;;29.26;42.54;101978.53;4999083;28;47377;-93
2021/07/18 11:02:37;;;;;;;;;3.00;3.00;;;;;29.41;42.35;101985.09;4993593;28;46018;-93
2021/07/18 11:05:04;;;;;;;;;1.67;1.67;;;;;29.51;42.36;101977.00;4982065;28;45311;-92
2021/07/18 11:07:34;;;;;;;;;4.67;3.33;;;;;29.63;42.07;101969.59;4995057;28;45623;-93
2021/07/18 11:10:21;;;;;;;;;2.00;2.00;;;;;29.75;42.09;101980.94;4988371;28;48363;-92
2021/07/18 11:12:58;;;;;;;;;2.00;2.00;;;;;29.86;41.42;101971.84;4976835;28;45525;-92
2021/07/18 11:15:34;;;;;;;;;3.33;3.00;;;;;29.96;41.50;101977.97;4996753;28;45682;-92
2021/07/18 11:18:05;;;;;;;;;2.33;2.33;;;;;30.08;40.84;101975.03;4996236;28;45637;-92
2021/07/18 11:20:50;;;;;;;;;2.00;2.00;;;;;30.24;40.36;101969.84;5000039;28;48325;-93
2021/07/18 11:23:35;;;;;;;;;1.67;1.67;;;;;30.26;40.04;101973.19;4997022;28;45426;-92